sensor_id;sensor_type;location;lat;lon;timestamp;P1;durP1;ratioP1;P2;durP2;ratioP2
59207;SDS011;44977;53.132;6.408;2023-11-21T00:03:24;20.17;;;7.38;;
59207;SDS011;44977;53.132;6.408;2023-11-21T00:08:24;20.63;;;7.60;;
59207;SDS011;44977;53.132;6.408;2023-11-21T00:13:25;18.55;;;7.13;;
59207;SDS011;44977;53.132;6.408;2023-11-21T00:18:26;21.48;;;8.40;;
59207;SDS011;44977;53.132;6.408;2023-11-21T00:23:26;20.15;;;7.68;;
59207;SDS011;44977;53.132;6.408;2023-11-21T00:28:27;24.58;;;9.70;;
59207;SDS011;44977;53.132;6.408;2023-11-21T00:33:28;23.58;;;10.65;;
59207;SDS011;44977;53.132;6.408;2023-11-21T00:38:28;25.98;;;10.38;;
59207;SDS011;44977;53.132;6.408;2023-11-21T00:43:30;23.73;;;10.32;;
59207;SDS011;44977;53.132;6.408;2023-11-21T00:48:30;23.52;;;11.32;;
59207;SDS011;44977;53.132;6.408;2023-11-21T00:53:31;24.92;;;11.73;;
59207;SDS011;44977;53.132;6.408;2023-11-21T00:58:32;30.38;;;12.18;;
59207;SDS011;44977;53.132;6.408;2023-11-21T01:03:33;29.98;;;13.10;;
59207;SDS011;44977;53.132;6.408;2023-11-21T01:08:33;26.30;;;11.70;;
59207;SDS011;44977;53.132;6.408;2023-11-21T01:13:34;27.27;;;12.45;;
59207;SDS011;44977;53.132;6.408;2023-11-21T01:18:37;23.58;;;12.23;;
59207;SDS011;44977;53.132;6.408;2023-11-21T01:23:38;27.95;;;13.25;;
59207;SDS011;44977;53.132;6.408;2023-11-21T01:28:38;24.48;;;12.80;;
59207;SDS011;44977;53.132;6.408;2023-11-21T01:33:39;28.23;;;13.65;;
59207;SDS011;44977;53.132;6.408;2023-11-21T01:38:40;28.58;;;13.55;;
59207;SDS011;44977;53.132;6.408;2023-11-21T01:43:41;30.90;;;14.10;;
59207;SDS011;44977;53.132;6.408;2023-11-21T01:48:41;28.40;;;13.05;;
59207;SDS011;44977;53.132;6.408;2023-11-21T01:53:42;29.08;;;14.18;;
59207;SDS011;44977;53.132;6.408;2023-11-21T01:58:44;29.15;;;13.85;;
59207;SDS011;44977;53.132;6.408;2023-11-21T02:03:46;28.30;;;13.82;;
59207;SDS011;44977;53.132;6.408;2023-11-21T02:08:47;26.65;;;13.80;;
59207;SDS011;44977;53.132;6.408;2023-11-21T02:13:49;29.00;;;13.95;;
59207;SDS011;44977;53.132;6.408;2023-11-21T02:18:50;26.88;;;13.82;;
59207;SDS011;44977;53.132;6.408;2023-11-21T02:23:52;25.98;;;13.15;;
59207;SDS011;44977;53.132;6.408;2023-11-21T02:28:52;23.45;;;12.60;;
59207;SDS011;44977;53.132;6.408;2023-11-21T02:33:53;24.65;;;13.93;;
59207;SDS011;44977;53.132;6.408;2023-11-21T02:38:54;25.27;;;13.35;;
59207;SDS011;44977;53.132;6.408;2023-11-21T02:43:54;25.75;;;13.25;;
59207;SDS011;44977;53.132;6.408;2023-11-21T02:48:55;31.52;;;14.75;;
59207;SDS011;44977;53.132;6.408;2023-11-21T02:53:56;29.17;;;14.40;;
59207;SDS011;44977;53.132;6.408;2023-11-21T02:59:02;28.45;;;13.60;;
59207;SDS011;44977;53.132;6.408;2023-11-21T03:04:03;27.30;;;13.32;;
59207;SDS011;44977;53.132;6.408;2023-11-21T03:09:04;27.35;;;14.32;;
59207;SDS011;44977;53.132;6.408;2023-11-21T03:14:06;31.35;;;15.93;;
59207;SDS011;44977;53.132;6.408;2023-11-21T03:19:07;29.63;;;15.23;;
59207;SDS011;44977;53.132;6.408;2023-11-21T03:24:08;36.70;;;17.02;;
59207;SDS011;44977;53.132;6.408;2023-11-21T03:29:09;31.25;;;15.15;;
59207;SDS011;44977;53.132;6.408;2023-11-21T03:34:10;26.85;;;15.20;;
59207;SDS011;44977;53.132;6.408;2023-11-21T03:39:15;29.27;;;15.68;;
59207;SDS011;44977;53.132;6.408;2023-11-21T03:44:16;31.52;;;16.08;;
59207;SDS011;44977;53.132;6.408;2023-11-21T03:49:17;31.08;;;17.10;;
59207;SDS011;44977;53.132;6.408;2023-11-21T03:54:18;30.27;;;16.38;;
59207;SDS011;44977;53.132;6.408;2023-11-21T03:59:19;31.67;;;16.95;;
59207;SDS011;44977;53.132;6.408;2023-11-21T04:04:20;31.80;;;16.15;;
59207;SDS011;44977;53.132;6.408;2023-11-21T04:09:20;30.48;;;16.50;;
59207;SDS011;44977;53.132;6.408;2023-11-21T04:14:24;25.42;;;15.57;;
59207;SDS011;44977;53.132;6.408;2023-11-21T04:19:24;23.92;;;15.20;;
59207;SDS011;44977;53.132;6.408;2023-11-21T04:24:25;25.02;;;15.18;;
59207;SDS011;44977;53.132;6.408;2023-11-21T04:29:26;26.98;;;15.80;;
59207;SDS011;44977;53.132;6.408;2023-11-21T04:34:27;27.63;;;16.05;;
59207;SDS011;44977;53.132;6.408;2023-11-21T04:39:27;29.67;;;15.23;;
59207;SDS011;44977;53.132;6.408;2023-11-21T04:44:28;32.63;;;17.30;;
59207;SDS011;44977;53.132;6.408;2023-11-21T04:49:29;27.90;;;16.27;;
59207;SDS011;44977;53.132;6.408;2023-11-21T04:54:30;33.13;;;17.63;;
59207;SDS011;44977;53.132;6.408;2023-11-21T04:59:31;32.83;;;17.90;;
59207;SDS011;44977;53.132;6.408;2023-11-21T05:04:31;44.95;;;20.27;;
59207;SDS011;44977;53.132;6.408;2023-11-21T05:09:32;36.78;;;18.83;;
59207;SDS011;44977;53.132;6.408;2023-11-21T05:14:34;35.03;;;17.50;;
59207;SDS011;44977;53.132;6.408;2023-11-21T05:19:35;35.92;;;17.05;;
59207;SDS011;44977;53.132;6.408;2023-11-21T05:24:35;35.75;;;17.63;;
59207;SDS011;44977;53.132;6.408;2023-11-21T05:29:36;32.20;;;16.92;;
59207;SDS011;44977;53.132;6.408;2023-11-21T05:34:37;28.90;;;16.08;;
59207;SDS011;44977;53.132;6.408;2023-11-21T05:39:38;28.17;;;15.13;;
59207;SDS011;44977;53.132;6.408;2023-11-21T05:44:40;30.80;;;15.80;;
59207;SDS011;44977;53.132;6.408;2023-11-21T05:49:43;27.23;;;14.98;;
59207;SDS011;44977;53.132;6.408;2023-11-21T05:54:45;28.25;;;14.93;;
59207;SDS011;44977;53.132;6.408;2023-11-21T05:59:46;28.92;;;15.05;;
59207;SDS011;44977;53.132;6.408;2023-11-21T06:04:46;34.25;;;17.25;;
59207;SDS011;44977;53.132;6.408;2023-11-21T06:09:47;32.03;;;16.90;;
59207;SDS011;44977;53.132;6.408;2023-11-21T06:14:50;29.30;;;15.93;;
59207;SDS011;44977;53.132;6.408;2023-11-21T06:19:51;29.98;;;15.70;;
59207;SDS011;44977;53.132;6.408;2023-11-21T06:24:52;29.67;;;15.55;;
59207;SDS011;44977;53.132;6.408;2023-11-21T06:29:53;28.30;;;14.57;;
59207;SDS011;44977;53.132;6.408;2023-11-21T06:34:54;24.77;;;14.05;;
59207;SDS011;44977;53.132;6.408;2023-11-21T06:39:54;24.05;;;14.50;;
59207;SDS011;44977;53.132;6.408;2023-11-21T06:44:56;24.98;;;14.30;;
59207;SDS011;44977;53.132;6.408;2023-11-21T06:49:58;23.83;;;13.38;;
59207;SDS011;44977;53.132;6.408;2023-11-21T06:54:59;23.77;;;13.77;;
59207;SDS011;44977;53.132;6.408;2023-11-21T07:00:00;23.73;;;13.55;;
59207;SDS011;44977;53.132;6.408;2023-11-21T07:05:00;26.80;;;14.25;;
59207;SDS011;44977;53.132;6.408;2023-11-21T07:10:01;29.13;;;15.85;;
59207;SDS011;44977;53.132;6.408;2023-11-21T07:15:03;34.35;;;18.73;;
59207;SDS011;44977;53.132;6.408;2023-11-21T07:20:07;42.97;;;21.60;;
59207;SDS011;44977;53.132;6.408;2023-11-21T07:25:08;34.05;;;19.55;;
59207;SDS011;44977;53.132;6.408;2023-11-21T07:30:12;26.70;;;15.23;;
59207;SDS011;44977;53.132;6.408;2023-11-21T07:35:13;23.50;;;13.82;;
59207;SDS011;44977;53.132;6.408;2023-11-21T07:40:14;28.85;;;14.90;;
59207;SDS011;44977;53.132;6.408;2023-11-21T07:45:15;27.77;;;15.70;;
59207;SDS011;44977;53.132;6.408;2023-11-21T07:50:15;25.83;;;15.98;;
59207;SDS011;44977;53.132;6.408;2023-11-21T07:55:16;27.73;;;16.27;;
59207;SDS011;44977;53.132;6.408;2023-11-21T08:00:17;28.85;;;18.13;;
59207;SDS011;44977;53.132;6.408;2023-11-21T08:05:18;31.23;;;19.58;;
59207;SDS011;44977;53.132;6.408;2023-11-21T08:10:19;36.47;;;21.70;;
59207;SDS011;44977;53.132;6.408;2023-11-21T08:15:21;39.25;;;23.38;;
59207;SDS011;44977;53.132;6.408;2023-11-21T08:20:22;42.75;;;25.05;;
59207;SDS011;44977;53.132;6.408;2023-11-21T08:25:24;44.05;;;26.23;;
59207;SDS011;44977;53.132;6.408;2023-11-21T08:30:25;37.15;;;23.95;;
59207;SDS011;44977;53.132;6.408;2023-11-21T08:35:30;43.55;;;24.65;;
59207;SDS011;44977;53.132;6.408;2023-11-21T08:40:31;45.08;;;27.45;;
59207;SDS011;44977;53.132;6.408;2023-11-21T08:45:32;36.75;;;23.98;;
59207;SDS011;44977;53.132;6.408;2023-11-21T08:50:34;35.40;;;23.60;;
59207;SDS011;44977;53.132;6.408;2023-11-21T08:55:34;36.97;;;24.00;;
59207;SDS011;44977;53.132;6.408;2023-11-21T09:00:37;38.22;;;24.75;;
59207;SDS011;44977;53.132;6.408;2023-11-21T09:05:40;36.47;;;24.33;;
59207;SDS011;44977;53.132;6.408;2023-11-21T09:10:40;38.00;;;24.88;;
59207;SDS011;44977;53.132;6.408;2023-11-21T09:15:43;39.25;;;26.15;;
59207;SDS011;44977;53.132;6.408;2023-11-21T09:20:46;35.60;;;25.58;;
59207;SDS011;44977;53.132;6.408;2023-11-21T09:25:47;31.95;;;22.85;;
59207;SDS011;44977;53.132;6.408;2023-11-21T09:30:49;29.13;;;21.80;;
59207;SDS011;44977;53.132;6.408;2023-11-21T09:35:50;27.98;;;21.73;;
59207;SDS011;44977;53.132;6.408;2023-11-21T09:40:52;26.20;;;20.67;;
59207;SDS011;44977;53.132;6.408;2023-11-21T09:45:54;27.17;;;19.98;;
59207;SDS011;44977;53.132;6.408;2023-11-21T09:51:00;25.63;;;20.27;;
59207;SDS011;44977;53.132;6.408;2023-11-21T09:56:03;25.08;;;19.63;;
59207;SDS011;44977;53.132;6.408;2023-11-21T10:01:05;22.63;;;18.60;;
59207;SDS011;44977;53.132;6.408;2023-11-21T10:06:07;24.27;;;19.77;;
59207;SDS011;44977;53.132;6.408;2023-11-21T10:11:09;22.30;;;18.45;;
59207;SDS011;44977;53.132;6.408;2023-11-21T10:16:13;20.73;;;18.23;;
59207;SDS011;44977;53.132;6.408;2023-11-21T10:21:18;21.02;;;17.10;;
59207;SDS011;44977;53.132;6.408;2023-11-21T10:26:19;20.52;;;16.55;;
59207;SDS011;44977;53.132;6.408;2023-11-21T10:31:24;20.80;;;16.80;;
59207;SDS011;44977;53.132;6.408;2023-11-21T10:36:27;19.60;;;15.07;;
59207;SDS011;44977;53.132;6.408;2023-11-21T10:41:28;18.38;;;14.88;;
59207;SDS011;44977;53.132;6.408;2023-11-21T10:46:29;17.17;;;13.55;;
59207;SDS011;44977;53.132;6.408;2023-11-21T10:51:30;16.80;;;12.63;;
59207;SDS011;44977;53.132;6.408;2023-11-21T10:56:31;15.05;;;11.63;;
59207;SDS011;44977;53.132;6.408;2023-11-21T11:01:35;14.80;;;12.05;;
59207;SDS011;44977;53.132;6.408;2023-11-21T11:06:36;14.82;;;11.20;;
59207;SDS011;44977;53.132;6.408;2023-11-21T11:11:42;14.80;;;11.20;;
59207;SDS011;44977;53.132;6.408;2023-11-21T11:16:44;13.43;;;10.10;;
59207;SDS011;44977;53.132;6.408;2023-11-21T11:37:16;11.98;;;8.13;;
59207;SDS011;44977;53.132;6.408;2023-11-21T11:42:17;11.80;;;8.20;;
59207;SDS011;44977;53.132;6.408;2023-11-21T11:47:20;10.32;;;7.25;;
59207;SDS011;44977;53.132;6.408;2023-11-21T11:52:38;10.65;;;7.57;;
59207;SDS011;44977;53.132;6.408;2023-11-21T11:57:41;10.98;;;7.90;;
59207;SDS011;44977;53.132;6.408;2023-11-21T12:02:46;10.13;;;6.68;;
59207;SDS011;44977;53.132;6.408;2023-11-21T12:08:07;10.30;;;6.28;;
59207;SDS011;44977;53.132;6.408;2023-11-21T12:13:11;9.48;;;6.35;;
59207;SDS011;44977;53.132;6.408;2023-11-21T12:18:14;11.38;;;6.38;;
59207;SDS011;44977;53.132;6.408;2023-11-21T12:23:15;9.70;;;6.63;;
59207;SDS011;44977;53.132;6.408;2023-11-21T12:28:17;9.68;;;6.55;;
59207;SDS011;44977;53.132;6.408;2023-11-21T12:33:17;11.10;;;7.57;;
59207;SDS011;44977;53.132;6.408;2023-11-21T12:38:18;10.77;;;7.05;;
59207;SDS011;44977;53.132;6.408;2023-11-21T12:43:19;11.68;;;7.72;;
59207;SDS011;44977;53.132;6.408;2023-11-21T12:48:20;11.45;;;7.05;;
59207;SDS011;44977;53.132;6.408;2023-11-21T12:53:24;10.02;;;6.88;;
59207;SDS011;44977;53.132;6.408;2023-11-21T12:58:26;10.57;;;7.50;;
59207;SDS011;44977;53.132;6.408;2023-11-21T13:03:26;10.38;;;7.10;;
59207;SDS011;44977;53.132;6.408;2023-11-21T13:08:27;10.38;;;7.82;;
59207;SDS011;44977;53.132;6.408;2023-11-21T13:13:30;12.07;;;8.10;;
59207;SDS011;44977;53.132;6.408;2023-11-21T13:18:31;11.10;;;8.02;;
59207;SDS011;44977;53.132;6.408;2023-11-21T13:23:34;11.73;;;8.48;;
59207;SDS011;44977;53.132;6.408;2023-11-21T13:28:36;11.48;;;8.93;;
59207;SDS011;44977;53.132;6.408;2023-11-21T13:33:37;12.10;;;8.98;;
59207;SDS011;44977;53.132;6.408;2023-11-21T13:38:38;11.80;;;8.25;;
59207;SDS011;44977;53.132;6.408;2023-11-21T13:43:42;11.15;;;8.10;;
59207;SDS011;44977;53.132;6.408;2023-11-21T13:48:48;12.50;;;9.20;;
59207;SDS011;44977;53.132;6.408;2023-11-21T13:53:55;11.98;;;8.65;;
59207;SDS011;44977;53.132;6.408;2023-11-21T13:58:57;12.07;;;8.15;;
59207;SDS011;44977;53.132;6.408;2023-11-21T14:04:04;11.77;;;8.25;;
59207;SDS011;44977;53.132;6.408;2023-11-21T14:09:23;11.25;;;6.57;;
59207;SDS011;44977;53.132;6.408;2023-11-21T14:14:35;10.07;;;6.70;;
59207;SDS011;44977;53.132;6.408;2023-11-21T14:19:36;11.23;;;6.80;;
59207;SDS011;44977;53.132;6.408;2023-11-21T14:24:40;11.13;;;7.63;;
59207;SDS011;44977;53.132;6.408;2023-11-21T14:29:45;10.48;;;7.45;;
59207;SDS011;44977;53.132;6.408;2023-11-21T14:34:47;11.80;;;7.32;;
59207;SDS011;44977;53.132;6.408;2023-11-21T14:39:48;10.32;;;7.28;;
59207;SDS011;44977;53.132;6.408;2023-11-21T14:44:49;11.07;;;7.25;;
59207;SDS011;44977;53.132;6.408;2023-11-21T14:49:51;10.98;;;7.00;;
59207;SDS011;44977;53.132;6.408;2023-11-21T14:54:52;10.93;;;6.55;;
59207;SDS011;44977;53.132;6.408;2023-11-21T15:00:13;9.20;;;6.32;;
59207;SDS011;44977;53.132;6.408;2023-11-21T15:05:33;9.27;;;6.05;;
59207;SDS011;44977;53.132;6.408;2023-11-21T15:10:35;10.25;;;6.18;;
59207;SDS011;44977;53.132;6.408;2023-11-21T15:15:46;9.18;;;6.20;;
59207;SDS011;44977;53.132;6.408;2023-11-21T15:20:47;9.73;;;6.30;;
59207;SDS011;44977;53.132;6.408;2023-11-21T15:25:47;9.85;;;6.50;;
59207;SDS011;44977;53.132;6.408;2023-11-21T15:30:48;10.50;;;5.93;;
59207;SDS011;44977;53.132;6.408;2023-11-21T15:35:51;13.32;;;8.93;;
59207;SDS011;44977;53.132;6.408;2023-11-21T15:40:51;10.55;;;6.20;;
59207;SDS011;44977;53.132;6.408;2023-11-21T15:45:52;21.13;;;13.50;;
59207;SDS011;44977;53.132;6.408;2023-11-21T15:50:55;11.77;;;7.20;;
59207;SDS011;44977;53.132;6.408;2023-11-21T15:55:57;9.45;;;6.15;;
59207;SDS011;44977;53.132;6.408;2023-11-21T16:00:58;11.52;;;6.72;;
59207;SDS011;44977;53.132;6.408;2023-11-21T16:05:59;10.07;;;6.88;;
59207;SDS011;44977;53.132;6.408;2023-11-21T16:10:59;10.55;;;7.28;;
59207;SDS011;44977;53.132;6.408;2023-11-21T16:16:00;10.30;;;7.00;;
59207;SDS011;44977;53.132;6.408;2023-11-21T16:21:01;9.43;;;6.20;;
59207;SDS011;44977;53.132;6.408;2023-11-21T16:26:02;10.55;;;6.00;;
59207;SDS011;44977;53.132;6.408;2023-11-21T16:31:05;9.68;;;6.40;;
59207;SDS011;44977;53.132;6.408;2023-11-21T16:36:05;11.88;;;6.15;;
59207;SDS011;44977;53.132;6.408;2023-11-21T16:41:06;14.35;;;10.23;;
59207;SDS011;44977;53.132;6.408;2023-11-21T16:46:09;9.52;;;6.43;;
59207;SDS011;44977;53.132;6.408;2023-11-21T16:51:14;11.35;;;7.78;;
59207;SDS011;44977;53.132;6.408;2023-11-21T16:56:17;11.10;;;9.00;;
59207;SDS011;44977;53.132;6.408;2023-11-21T17:01:18;11.50;;;8.02;;
59207;SDS011;44977;53.132;6.408;2023-11-21T17:06:19;13.75;;;9.10;;
59207;SDS011;44977;53.132;6.408;2023-11-21T17:11:20;14.52;;;11.35;;
59207;SDS011;44977;53.132;6.408;2023-11-21T17:16:21;17.27;;;14.15;;
59207;SDS011;44977;53.132;6.408;2023-11-21T17:21:22;14.15;;;11.48;;
59207;SDS011;44977;53.132;6.408;2023-11-21T17:26:23;13.52;;;10.15;;
59207;SDS011;44977;53.132;6.408;2023-11-21T17:31:24;12.57;;;9.88;;
59207;SDS011;44977;53.132;6.408;2023-11-21T17:36:25;12.90;;;9.63;;
59207;SDS011;44977;53.132;6.408;2023-11-21T17:41:26;14.32;;;10.45;;
59207;SDS011;44977;53.132;6.408;2023-11-21T17:46:26;14.65;;;11.20;;
59207;SDS011;44977;53.132;6.408;2023-11-21T17:51:27;14.70;;;11.00;;
59207;SDS011;44977;53.132;6.408;2023-11-21T17:56:28;14.27;;;11.85;;
59207;SDS011;44977;53.132;6.408;2023-11-21T18:01:28;15.43;;;11.82;;
59207;SDS011;44977;53.132;6.408;2023-11-21T18:06:33;17.25;;;14.48;;
59207;SDS011;44977;53.132;6.408;2023-11-21T18:11:34;18.73;;;15.57;;
59207;SDS011;44977;53.132;6.408;2023-11-21T18:16:35;18.90;;;15.43;;
59207;SDS011;44977;53.132;6.408;2023-11-21T18:21:38;17.95;;;14.82;;
59207;SDS011;44977;53.132;6.408;2023-11-21T18:26:40;20.13;;;14.13;;
59207;SDS011;44977;53.132;6.408;2023-11-21T18:31:41;16.80;;;14.13;;
59207;SDS011;44977;53.132;6.408;2023-11-21T18:36:43;14.45;;;12.23;;
59207;SDS011;44977;53.132;6.408;2023-11-21T18:41:45;17.20;;;13.20;;
59207;SDS011;44977;53.132;6.408;2023-11-21T18:46:45;17.48;;;12.88;;
59207;SDS011;44977;53.132;6.408;2023-11-21T18:51:46;14.65;;;12.40;;
59207;SDS011;44977;53.132;6.408;2023-11-21T18:56:51;15.75;;;13.07;;
59207;SDS011;44977;53.132;6.408;2023-11-21T19:01:52;16.38;;;14.02;;
59207;SDS011;44977;53.132;6.408;2023-11-21T19:06:53;15.65;;;13.23;;
59207;SDS011;44977;53.132;6.408;2023-11-21T19:11:59;17.33;;;15.10;;
59207;SDS011;44977;53.132;6.408;2023-11-21T19:17:00;16.70;;;14.80;;
59207;SDS011;44977;53.132;6.408;2023-11-21T19:22:01;17.33;;;15.20;;
59207;SDS011;44977;53.132;6.408;2023-11-21T19:27:01;16.85;;;14.93;;
59207;SDS011;44977;53.132;6.408;2023-11-21T19:32:03;15.75;;;14.00;;
59207;SDS011;44977;53.132;6.408;2023-11-21T19:37:04;15.70;;;13.45;;
59207;SDS011;44977;53.132;6.408;2023-11-21T19:42:06;16.92;;;13.98;;
59207;SDS011;44977;53.132;6.408;2023-11-21T19:47:07;18.35;;;16.15;;
59207;SDS011;44977;53.132;6.408;2023-11-21T19:52:08;16.20;;;14.48;;
59207;SDS011;44977;53.132;6.408;2023-11-21T19:57:09;19.08;;;15.93;;
59207;SDS011;44977;53.132;6.408;2023-11-21T20:02:14;17.67;;;15.65;;
59207;SDS011;44977;53.132;6.408;2023-11-21T20:07:15;17.95;;;14.13;;
59207;SDS011;44977;53.132;6.408;2023-11-21T20:12:18;16.85;;;14.35;;
59207;SDS011;44977;53.132;6.408;2023-11-21T20:17:19;18.98;;;14.48;;
59207;SDS011;44977;53.132;6.408;2023-11-21T20:22:20;16.58;;;13.85;;
59207;SDS011;44977;53.132;6.408;2023-11-21T20:27:20;16.35;;;13.73;;
59207;SDS011;44977;53.132;6.408;2023-11-21T20:32:21;16.13;;;13.23;;
59207;SDS011;44977;53.132;6.408;2023-11-21T20:37:24;15.70;;;13.65;;
59207;SDS011;44977;53.132;6.408;2023-11-21T20:42:24;18.83;;;14.90;;
59207;SDS011;44977;53.132;6.408;2023-11-21T20:47:25;19.58;;;16.50;;
59207;SDS011;44977;53.132;6.408;2023-11-21T20:52:26;17.98;;;15.07;;
59207;SDS011;44977;53.132;6.408;2023-11-21T20:57:27;16.80;;;14.07;;
59207;SDS011;44977;53.132;6.408;2023-11-21T21:02:28;16.35;;;14.23;;
59207;SDS011;44977;53.132;6.408;2023-11-21T21:07:29;15.07;;;12.52;;
59207;SDS011;44977;53.132;6.408;2023-11-21T21:12:30;14.73;;;11.98;;
59207;SDS011;44977;53.132;6.408;2023-11-21T21:17:32;15.88;;;14.18;;
59207;SDS011;44977;53.132;6.408;2023-11-21T21:22:33;16.95;;;14.38;;
59207;SDS011;44977;53.132;6.408;2023-11-21T21:27:34;16.58;;;14.80;;
59207;SDS011;44977;53.132;6.408;2023-11-21T21:32:36;17.65;;;15.68;;
59207;SDS011;44977;53.132;6.408;2023-11-21T21:37:38;16.10;;;13.70;;
59207;SDS011;44977;53.132;6.408;2023-11-21T21:42:39;17.08;;;15.20;;
59207;SDS011;44977;53.132;6.408;2023-11-21T21:47:40;16.23;;;14.02;;
59207;SDS011;44977;53.132;6.408;2023-11-21T21:52:40;16.25;;;14.20;;
59207;SDS011;44977;53.132;6.408;2023-11-21T21:57:42;15.90;;;13.18;;
59207;SDS011;44977;53.132;6.408;2023-11-21T22:02:43;17.02;;;13.70;;
59207;SDS011;44977;53.132;6.408;2023-11-21T22:07:43;18.65;;;13.73;;
59207;SDS011;44977;53.132;6.408;2023-11-21T22:12:44;16.30;;;13.23;;
59207;SDS011;44977;53.132;6.408;2023-11-21T22:17:45;16.17;;;12.68;;
59207;SDS011;44977;53.132;6.408;2023-11-21T22:22:46;19.23;;;14.35;;
59207;SDS011;44977;53.132;6.408;2023-11-21T22:27:46;17.33;;;14.18;;
59207;SDS011;44977;53.132;6.408;2023-11-21T22:32:47;19.65;;;14.65;;
59207;SDS011;44977;53.132;6.408;2023-11-21T22:37:48;17.60;;;14.45;;
59207;SDS011;44977;53.132;6.408;2023-11-21T22:42:49;19.60;;;15.77;;
59207;SDS011;44977;53.132;6.408;2023-11-21T22:47:50;18.23;;;14.82;;
59207;SDS011;44977;53.132;6.408;2023-11-21T22:52:50;16.90;;;13.82;;
59207;SDS011;44977;53.132;6.408;2023-11-21T22:57:53;16.13;;;13.13;;
59207;SDS011;44977;53.132;6.408;2023-11-21T23:02:54;16.17;;;13.57;;
59207;SDS011;44977;53.132;6.408;2023-11-21T23:07:55;16.77;;;13.38;;
59207;SDS011;44977;53.132;6.408;2023-11-21T23:12:56;18.20;;;13.45;;
59207;SDS011;44977;53.132;6.408;2023-11-21T23:17:57;16.38;;;12.43;;
59207;SDS011;44977;53.132;6.408;2023-11-21T23:22:58;16.13;;;12.52;;
59207;SDS011;44977;53.132;6.408;2023-11-21T23:27:58;16.50;;;12.20;;
59207;SDS011;44977;53.132;6.408;2023-11-21T23:33:01;15.27;;;12.45;;
59207;SDS011;44977;53.132;6.408;2023-11-21T23:38:02;14.95;;;12.02;;
59207;SDS011;44977;53.132;6.408;2023-11-21T23:43:04;15.52;;;11.77;;
59207;SDS011;44977;53.132;6.408;2023-11-21T23:48:04;14.23;;;10.45;;
59207;SDS011;44977;53.132;6.408;2023-11-21T23:53:06;14.35;;;10.50;;
59207;SDS011;44977;53.132;6.408;2023-11-21T23:58:07;14.60;;;10.48;;
